Flight Track Log - Related Links

Times and Time Zones

All times are in EDT time to prevent confusion due to time zone crossing. See the CTL13 flight status page for this flight to view local times or setup timezone preferences in your user account.

Time Position Orientation Groundspeed Altitude Reporting Facility
EDT Latitude Longitude Course Direction KTS MPH feet Rate Location/Type
Thu 07:54:06 PM 39.9000 -86.3500 328° Northwest 138 159 2,900  Level Indianapolis TRACON
Thu 07:55:06 PM 39.9333 -86.3833 323° Northwest 137 158 3,700 800 Climbing Indianapolis TRACON
Thu 07:56:06 PM 39.9667 -86.4167 323° Northwest 139 160 4,500 750 Climbing Indianapolis TRACON
Thu 07:57:06 PM 40.0000 -86.4500 323° Northwest 139 160 5,200 694 Climbing Indianapolis TRACON
Thu 07:58:07 PM 40.0333 -86.4833 323° Northwest 142 163 5,900 386 Climbing Indianapolis TRACON
Thu 07:59:26 PM 40.0653 -86.5242 316° Northwest 146 168 6,100 128 Climbing Indianapolis Center
Thu 08:00:28 PM 40.1033 -86.5644 321° Northwest 161 185 6,200  Climbing Indianapolis Center
Thu 08:01:30 PM 40.1397 -86.6042 320° Northwest 168 193 6,100  Descending Indianapolis Center
Thu 08:02:32 PM 40.1825 -86.6533 319° Northwest 170 196 6,200 48 Climbing Indianapolis Center
Thu 08:03:34 PM 40.2189 -86.6928 320° Northwest 170 196 6,200  Level Indianapolis Center
Thu 08:04:36 PM 40.2550 -86.7306 321° Northwest 169 194 6,200 -48 Level Indianapolis Center
Thu 08:05:38 PM 40.2958 -86.7594 332° Northwest 168 193 6,100 -48 Descending Indianapolis Center
Thu 08:06:40 PM 40.3386 -86.7872 334° Northwest 169 194 6,100  Level Indianapolis Center
Thu 08:07:42 PM 40.3800 -86.8142 334° Northwest 168 193 6,100  Level Indianapolis Center
Thu 08:08:44 PM 40.4303 -86.8472 333° Northwest 168 193 6,100 48 Level Indianapolis Center
Thu 08:09:46 PM 40.4719 -86.8756 333° Northwest 169 194 6,200 48 Climbing Indianapolis Center
Thu 08:10:48 PM 40.5153 -86.9017 335° Northwest 170 196 6,200  Level Indianapolis Center
Thu 08:11:50 PM 40.5569 -86.9294 333° Northwest 169 194 6,200  Level Indianapolis Center
Thu 08:12:58 PM 40.6058 -86.9656 331° Northwest 168 193 6,200 -43 Level Chicago Center
Thu 08:14:11 PM 40.6572 -86.9967 335° Northwest 169 194 6,100 -44 Descending Chicago Center
Thu 08:15:13 PM 40.6992 -87.0239 334° Northwest 169 194 6,100  Level Chicago Center
Thu 08:16:15 PM 40.7439 -87.0517 335° Northwest 170 196 6,100  Level Chicago Center
Thu 08:17:17 PM 40.7844 -87.0803 332° Northwest 168 193 6,100  Level Chicago Center
Thu 08:18:19 PM 40.8358 -87.1097 337° Northwest 169 194 6,100  Level Chicago Center
Thu 08:19:21 PM 40.8769 -87.1364 334° Northwest 167 192 6,100  Level Chicago Center
Thu 08:20:23 PM 40.9156 -87.1658 330° Northwest 164 189 6,100  Level Chicago Center
Thu 08:21:25 PM 40.9561 -87.1942 332° Northwest 165 190 6,100 -192 Level Chicago Center
Thu 08:22:28 PM 40.9975 -87.2225 333° Northwest 171 197 5,700 -480 Descending Chicago Center
Thu 08:23:30 PM 41.0500 -87.2603 332° Northwest 179 206 5,100 -581 Descending Chicago Center
Thu 08:24:32 PM 41.0975 -87.2928 333° Northwest 188 216 4,500 -484 Descending Chicago Center
Thu 08:25:34 PM 41.1447 -87.3247 333° Northwest 191 220 4,100 -194 Descending Chicago Center
Thu 08:26:36 PM 41.1881 -87.3533 334° Northwest 185 213 4,100  Level Chicago Center
Thu 08:27:38 PM 41.2292 -87.3822 332° Northwest 177 204 4,100 48 Level Chicago Center
Thu 08:28:40 PM 41.2794 -87.4167 333° Northwest 173 199 4,200  Climbing Chicago Center
Thu 08:29:42 PM 41.3214 -87.4450 333° Northwest 171 197 4,100 -48 Descending Chicago Center
Thu 08:30:44 PM 41.3642 -87.4756 332° Northwest 174 200 4,100  Level Chicago Center
Thu 08:31:46 PM 41.3978 -87.5189 316° Northwest 173 199 4,100  Level Chicago Center
Thu 08:32:49 PM 41.4233 -87.5714 303° West 172 198 4,100 -144 Level Chicago Center
Thu 08:33:51 PM 41.4583 -87.6361 306° West 177 204 3,800 -339 Descending Chicago Center
Thu 08:34:53 PM 41.4872 -87.6917 305° West 181 208 3,400 -339 Descending Chicago Center
Thu 08:35:55 PM 41.5169 -87.7489 305° West 185 213 3,100 -145 Descending Chicago Center
Thu 08:36:57 PM 41.5456 -87.8014 306° West 183 211 3,100 -48 Level Chicago Center
Thu 08:37:59 PM 41.5592 -87.8761 284° West 181 208 3,000  Descending Chicago Center
Thu 08:39:01 PM 41.5792 -87.9317 296° West 178 205 3,100  Climbing Chicago Center
Thu 08:40:03 PM 41.6175 -87.9522 338° Northwest 176 203 3,000 -48 Descending Chicago Center
Thu 08:41:05 PM 41.6581 -87.9150 34° Northeast 180 207 3,000  Level Chicago Center
Thu 08:42:07 PM 41.6919 -87.8708 44° Northeast 175 201 3,000 -387 Level Chicago Center
Thu 08:43:09 PM 41.7328 -87.8222 42° Northeast 170 196 2,200 -768 Descending Chicago Center
Thu 08:44:12 PM 41.7589 -87.7906 42° Northeast 140 161 1,400 -528 Descending Chicago Center
Thu 08:45:14 PM 41.7778 -87.7667 43° Northeast 125 144 1,100 -290 Descending Chicago Center
Thu 08:47:00 PM 41.7833 -87.7500 North  Level FlightAware Approximate

Login

Don't have an account? Register now (free) for customized features, flight alerts, and more!